Time;durP1;ratioP1;P1;durP2;ratioP2;P2;SDS_P1;SDS_P2;PMS_P1;PMS_P2;Temp;Humidity;BMP_temperature;BMP_pressure;BME280_temperature;BME280_humidity;BME280_pressure;Samples;Min_cycle;Max_cycle;Signal;HPM_P1;HPM_P2
2022/06/06 00:02:10;;;;;;;4.15;3.75;;;19.50;99.90;;;;;;4994457;28;20034;-84
2022/06/06 00:04:36;;;;;;;5.95;3.90;;;19.60;99.90;;;;;;4994581;28;20037;-84
2022/06/06 00:07:03;;;;;;;4.20;3.80;;;19.50;99.90;;;;;;4994423;28;20144;-84
2022/06/06 00:09:29;;;;;;;4.78;3.88;;;19.50;99.90;;;;;;4994408;28;20027;-84
2022/06/06 00:11:57;;;;;;;5.15;3.75;;;19.40;99.90;;;;;;4994491;28;20030;-84
2022/06/06 00:14:24;;;;;;;4.57;3.67;;;19.30;99.90;;;;;;4994498;28;20062;-84
2022/06/06 00:16:49;;;;;;;8.43;3.67;;;19.20;99.90;;;;;;4994107;28;20069;-83
2022/06/06 00:19:15;;;;;;;5.75;4.35;;;19.10;99.90;;;;;;4994107;28;20034;-84
2022/06/06 00:21:42;;;;;;;6.75;4.80;;;19.00;99.90;;;;;;4994128;28;20109;-84
2022/06/06 00:24:09;;;;;;;5.15;4.35;;;18.90;99.90;;;;;;4994951;28;20078;-84
2022/06/06 00:26:35;;;;;;;5.65;3.90;;;18.90;99.90;;;;;;4993660;28;20035;-85
2022/06/06 00:29:02;;;;;;;6.25;4.10;;;19.00;99.90;;;;;;4993787;28;20450;-84
2022/06/06 00:36:59;;;;;;;4.20;3.80;;;19.10;99.90;;;;;;4979971;28;20053;-84
2022/06/06 00:39:25;;;;;;;6.00;4.18;;;19.00;99.90;;;;;;4994257;28;20391;-84
2022/06/06 00:41:53;;;;;;;5.97;4.28;;;18.80;99.90;;;;;;4993129;28;20030;-83
2022/06/06 00:44:22;;;;;;;6.85;4.43;;;18.80;99.90;;;;;;4993304;28;20034;-84
2022/06/06 00:46:58;;;;;;;5.60;3.90;;;18.70;99.90;;;;;;4993311;28;20406;-84
2022/06/06 00:49:36;;;;;;;4.70;4.03;;;18.60;99.90;;;;;;4993813;28;20505;-84
2022/06/06 00:52:04;;;;;;;7.30;4.75;;;18.40;99.90;;;;;;4993736;28;20037;-84
2022/06/06 00:54:31;;;;;;;4.55;4.15;;;18.60;99.90;;;;;;4993176;28;20073;-84
2022/06/06 00:57:02;;;;;;;7.28;4.53;;;18.60;99.90;;;;;;4993890;28;20029;-84
2022/06/06 00:59:32;;;;;;;6.50;4.43;;;18.60;99.90;;;;;;4993251;28;20034;-84
2022/06/06 01:01:58;;;;;;;5.43;4.50;;;18.70;99.90;;;;;;4993258;28;20487;-84
2022/06/06 01:04:27;;;;;;;6.55;4.70;;;18.70;99.90;;;;;;4993038;28;20023;-84
2022/06/06 01:06:53;;;;;;;5.45;4.13;;;18.50;99.90;;;;;;4992635;28;20022;-85
2022/06/06 01:09:22;;;;;;;9.10;4.53;;;18.40;99.90;;;;;;4993611;28;20123;-84
2022/06/06 01:12:01;;;;;;;5.40;4.13;;;18.40;99.90;;;;;;4992841;28;20030;-84
2022/06/06 01:14:33;;;;;;;4.97;4.47;;;18.50;99.90;;;;;;4993032;28;20034;-84
2022/06/06 01:16:58;;;;;;;6.45;4.72;;;18.30;99.90;;;;;;4993063;28;20038;-84
2022/06/06 01:19:46;;;;;;;7.15;4.38;;;18.20;99.90;;;;;;4992725;28;20029;-84
2022/06/06 01:22:34;;;;;;;6.07;4.68;;;18.30;99.90;;;;;;4992848;28;20049;-84
2022/06/06 01:25:11;;;;;;;5.75;4.57;;;18.40;99.90;;;;;;4978756;28;20031;-84
2022/06/06 01:27:50;;;;;;;5.30;4.32;;;18.30;99.90;;;;;;4992613;28;20491;-84
2022/06/06 01:30:21;;;;;;;6.13;4.72;;;18.30;99.90;;;;;;4993297;28;20113;-83
2022/06/06 01:32:52;;;;;;;8.38;4.85;;;18.30;99.90;;;;;;4992815;28;20137;-84
2022/06/06 01:35:27;;;;;;;8.93;4.70;;;18.20;99.90;;;;;;4954287;28;20479;-83
2022/06/06 01:37:53;;;;;;;6.47;4.82;;;18.10;99.90;;;;;;4953604;29;20567;-84
2022/06/06 01:40:19;;;;;;;7.15;4.60;;;18.00;99.90;;;;;;4953881;29;20458;-84
2022/06/06 01:42:51;;;;;;;5.40;4.90;;;18.20;99.90;;;;;;4952917;29;20098;-84
2022/06/06 01:45:49;;;;;;;5.78;4.68;;;18.10;99.90;;;;;;4950182;29;20031;-84
2022/06/06 01:48:19;;;;;;;6.22;4.85;;;18.00;99.90;;;;;;4949531;29;20051;-84
2022/06/06 01:50:45;;;;;;;5.72;5.13;;;17.80;99.90;;;;;;4953412;28;20073;-84
2022/06/06 01:53:17;;;;;;;7.15;4.82;;;17.80;99.90;;;;;;4952992;28;20027;-84
2022/06/06 01:55:46;;;;;;;7.82;5.10;;;17.80;99.90;;;;;;4953811;28;20059;-83
2022/06/06 01:58:25;;;;;;;10.93;5.13;;;17.50;99.90;;;;;;4953459;28;20035;-84
2022/06/06 02:00:51;;;;;;;6.18;4.65;;;17.50;99.90;;;;;;4938476;29;20092;-84
2022/06/06 02:03:17;;;;;;;6.40;4.60;;;17.50;99.90;;;;;;4950102;29;20384;-84
2022/06/06 02:05:44;;;;;;;6.03;4.60;;;17.50;99.90;;;;;;4953444;28;20042;-84
2022/06/06 02:08:10;;;;;;;5.75;4.65;;;17.50;99.90;;;;;;4953002;28;20042;-84
2022/06/06 02:10:36;;;;;;;5.55;4.70;;;17.50;99.90;;;;;;4953472;28;20046;-84
2022/06/06 02:13:02;;;;;;;5.47;4.82;;;17.90;99.90;;;;;;4953241;28;20035;-84
2022/06/06 02:15:28;;;;;;;8.27;5.20;;;17.60;99.90;;;;;;4953653;29;20023;-84
2022/06/06 02:17:55;;;;;;;5.30;4.80;;;17.50;99.90;;;;;;4954146;28;20042;-84
2022/06/06 02:20:23;;;;;;;9.43;5.28;;;17.40;99.90;;;;;;4953051;29;20112;-84
2022/06/06 02:22:49;;;;;;;7.45;5.00;;;17.30;99.90;;;;;;4953071;28;20035;-83
2022/06/06 02:25:15;;;;;;;7.97;5.07;;;17.00;1.00;;;;;;4953214;28;20511;-84
2022/06/06 02:27:42;;;;;;;5.35;4.78;;;17.10;1.00;;;;;;4953241;28;20134;-84
2022/06/06 02:30:20;;;;;;;6.10;5.28;;;17.10;1.00;;;;;;4954074;28;20027;-84
2022/06/06 02:32:45;;;;;;;5.40;4.85;;;17.20;1.00;;;;;;4953238;29;20035;-84
2022/06/06 02:35:14;;;;;;;6.18;5.45;;;17.20;99.90;;;;;;4990477;28;20453;-84
2022/06/06 02:37:40;;;;;;;6.35;5.30;;;17.30;1.00;;;;;;4991370;28;20036;-84
2022/06/06 02:40:09;;;;;;;7.88;5.45;;;17.20;1.00;;;;;;4991608;28;20022;-84
2022/06/06 02:42:35;;;;;;;9.60;5.68;;;17.10;1.00;;;;;;4992105;28;20478;-84
2022/06/06 02:45:02;;;;;;;6.97;5.03;;;17.10;1.00;;;;;;4990284;28;20027;-84
2022/06/06 02:47:28;;;;;;;6.05;5.47;;;17.00;99.90;;;;;;4991495;28;20061;-84
2022/06/06 02:49:54;;;;;;;5.72;5.07;;;17.10;1.00;;;;;;4991676;28;20030;-84
2022/06/06 02:52:20;;;;;;;6.00;5.40;;;17.10;99.90;;;;;;4991449;28;20027;-84
2022/06/06 02:54:46;;;;;;;7.45;5.43;;;17.00;1.00;;;;;;4992186;28;20102;-84
2022/06/06 02:57:12;;;;;;;7.82;4.97;;;16.90;99.90;;;;;;4992103;28;20475;-84
2022/06/06 02:59:38;;;;;;;6.55;5.45;;;17.00;99.90;;;;;;4991566;28;20045;-84
2022/06/06 03:02:04;;;;;;;10.05;5.20;;;17.00;1.00;;;;;;4991591;28;20407;-83
2022/06/06 03:04:30;;;;;;;5.70;5.03;;;17.00;99.90;;;;;;4991345;28;20031;-84
2022/06/06 03:07:15;;;;;;;6.70;5.55;;;16.90;1.00;;;;;;4991257;28;20045;-84
2022/06/06 03:10:14;;;;;;;5.60;5.10;;;16.90;1.00;;;;;;4993109;28;20023;-84
2022/06/06 03:13:10;;;;;;;5.90;5.18;;;17.00;1.00;;;;;;4976676;28;20045;-84
2022/06/06 03:15:42;;;;;;;5.57;5.07;;;17.10;1.00;;;;;;4994079;28;20030;-84
2022/06/06 03:21:32;;;;;;;6.40;4.90;;;17.10;1.00;;;;;;4994995;28;20081;-84
2022/06/06 03:24:34;;;;;;;10.13;5.75;;;17.10;1.00;;;;;;4995326;28;20049;-84
2022/06/06 03:27:08;;;;;;;6.03;5.43;;;17.10;1.00;;;;;;4990837;28;20073;-84
2022/06/06 03:29:40;;;;;;;7.97;5.88;;;17.10;1.00;;;;;;4995394;28;20042;-84
2022/06/06 03:32:19;;;;;;;6.40;5.28;;;17.00;1.00;;;;;;4994890;28;20065;-84
2022/06/06 03:35:06;;;;;;;7.57;5.78;;;17.00;1.00;;;;;;4994573;28;20053;-84
2022/06/06 03:38:14;;;;;;;8.55;5.15;;;16.90;1.00;;;;;;4994670;28;20057;-84
2022/06/06 03:41:01;;;;;;;6.88;5.35;;;16.90;1.00;;;;;;4911060;29;20032;-84
2022/06/06 03:43:34;;;;;;;5.80;5.18;;;17.00;1.00;;;;;;4911559;29;20037;-84
2022/06/06 03:46:26;;;;;;;7.45;5.20;;;17.00;1.00;;;;;;4916195;29;20095;-84
2022/06/06 03:49:11;;;;;;;6.15;5.55;;;16.90;1.00;;;;;;4915406;29;20043;-84
2022/06/06 03:51:59;;;;;;;8.98;5.43;;;16.90;1.00;;;;;;4914217;29;20583;-84
2022/06/06 03:54:36;;;;;;;6.00;5.40;;;16.80;1.00;;;;;;4912662;29;20123;-84
2022/06/06 03:57:11;;;;;;;6.35;5.72;;;16.50;1.00;;;;;;4914107;29;20044;-84
2022/06/06 03:59:39;;;;;;;8.07;5.75;;;16.50;1.00;;;;;;4911717;29;20107;-84
2022/06/06 04:02:06;;;;;;;8.45;6.00;;;16.50;1.00;;;;;;4906149;29;20041;-84
2022/06/06 04:04:33;;;;;;;7.22;5.38;;;16.50;1.00;;;;;;4901109;29;20437;-84
2022/06/06 04:07:00;;;;;;;8.05;5.65;;;16.50;1.00;;;;;;4915788;29;20125;-84
2022/06/06 04:09:29;;;;;;;6.00;5.43;;;16.60;1.00;;;;;;4900290;29;20107;-84
2022/06/06 04:12:16;;;;;;;7.07;5.75;;;16.80;1.00;;;;;;4914954;29;20044;-84
2022/06/06 04:14:47;;;;;;;6.18;5.40;;;16.80;1.00;;;;;;4910815;29;20024;-84
2022/06/06 04:17:54;;;;;;;7.65;5.68;;;16.80;1.00;;;;;;4943940;28;20050;-84
2022/06/06 04:20:28;;;;;;;7.05;6.22;;;16.60;1.00;;;;;;4910365;29;20035;-84
2022/06/06 04:23:19;;;;;;;7.20;5.47;;;16.50;1.00;;;;;;4910879;29;20035;-84
2022/06/06 04:26:18;;;;;;;8.50;5.57;;;16.40;1.00;;;;;;4910683;29;20042;-84
2022/06/06 04:29:04;;;;;;;6.93;5.57;;;16.40;1.00;;;;;;4902623;29;20135;-85
2022/06/06 04:31:42;;;;;;;6.30;5.45;;;16.60;1.00;;;;;;4910653;29;20048;-84
2022/06/06 04:34:34;;;;;;;7.97;5.70;;;16.80;1.00;;;;;;4912439;29;20059;-84
2022/06/06 04:37:14;;;;;;;6.95;5.68;;;16.90;1.00;;;;;;4913941;29;20040;-84
2022/06/06 04:40:09;;;;;;;7.10;5.25;;;16.90;1.00;;;;;;4914002;29;20505;-84
2022/06/06 04:42:40;;;;;;;7.13;5.82;;;16.80;1.00;;;;;;4856672;29;20037;-84
2022/06/06 04:45:30;;;;;;;8.15;5.50;;;16.90;1.00;;;;;;4858859;29;20057;-84
2022/06/06 04:47:58;;;;;;;6.65;5.32;;;16.90;1.00;;;;;;4847028;29;20058;-84
2022/06/06 04:50:23;;;;;;;6.80;5.65;;;17.00;1.00;;;;;;4863154;29;20052;-84
2022/06/06 04:52:53;;;;;;;9.52;5.32;;;17.00;1.00;;;;;;4907160;29;20160;-84
2022/06/06 04:55:20;;;;;;;5.75;5.25;;;17.00;1.00;;;;;;4914594;29;20425;-84
2022/06/06 04:57:49;;;;;;;7.25;5.82;;;17.00;1.00;;;;;;4914418;29;20127;-84
2022/06/06 05:00:16;;;;;;;6.68;5.57;;;17.20;1.00;;;;;;4915155;29;20032;-84
2022/06/06 05:02:42;;;;;;;6.03;5.25;;;16.90;1.00;;;;;;4913742;29;20420;-84
2022/06/06 05:05:09;;;;;;;10.52;5.18;;;17.00;1.00;;;;;;4914621;29;20036;-85
2022/06/06 05:08:08;;;;;;;7.88;5.70;;;17.10;1.00;;;;;;4914147;29;20106;-84
2022/06/06 05:10:47;;;;;;;6.32;5.57;;;17.30;1.00;;;;;;4914101;29;20473;-84
2022/06/06 05:13:32;;;;;;;7.60;5.93;;;17.40;1.00;;;;;;4914135;29;20108;-84
2022/06/06 05:16:10;;;;;;;6.60;5.45;;;17.50;1.00;;;;;;4900168;29;20036;-84
2022/06/06 05:18:57;;;;;;;9.10;5.68;;;17.50;1.00;;;;;;4918429;28;20036;-84
2022/06/06 05:22:06;;;;;;;6.25;4.93;;;17.50;1.00;;;;;;4989888;28;20057;-84
2022/06/06 05:24:43;;;;;;;6.75;5.30;;;17.60;1.00;;;;;;4991131;28;20030;-84
2022/06/06 05:27:23;;;;;;;6.82;5.60;;;17.70;1.00;;;;;;4992303;28;20486;-84
2022/06/06 05:29:49;;;;;;;7.90;5.85;;;17.80;1.00;;;;;;4992586;28;20517;-83
2022/06/06 05:32:49;;;;;;;6.30;5.65;;;17.80;1.00;;;;;;4991918;28;20061;-84
2022/06/06 05:35:32;;;;;;;9.27;5.85;;;17.90;1.00;;;;;;4992470;28;20050;-84
2022/06/06 05:38:46;;;;;;;6.63;5.85;;;18.00;1.00;;;;;;4992744;28;20214;-84
2022/06/06 05:41:39;;;;;;;9.18;6.07;;;18.10;1.00;;;;;;4909723;29;20052;-84
2022/06/06 05:44:40;;;;;;;10.60;5.47;;;18.10;1.00;;;;;;4909278;29;20176;-85
2022/06/06 05:47:32;;;;;;;7.50;6.00;;;18.20;1.00;;;;;;4909156;29;20563;-85
2022/06/06 05:50:21;;;;;;;9.10;6.38;;;18.40;1.00;;;;;;4909102;29;20032;-84
2022/06/06 05:52:49;;;;;;;7.80;6.82;;;18.40;1.00;;;;;;4909221;29;20086;-84
2022/06/06 05:55:41;;;;;;;9.10;7.25;;;18.50;1.00;;;;;;4910593;29;20032;-84
2022/06/06 05:58:30;;;;;;;10.68;6.93;;;18.60;1.00;;;;;;4911563;29;20164;-84
2022/06/06 06:01:24;;;;;;;7.55;6.53;;;18.60;1.00;;;;;;4895663;29;20044;-84
2022/06/06 06:04:04;;;;;;;11.55;7.15;;;18.70;1.00;;;;;;4913125;29;20024;-84
2022/06/06 06:06:57;;;;;;;9.98;7.50;;;18.70;1.00;;;;;;4910782;29;20036;-85
2022/06/06 06:09:36;;;;;;;8.95;7.35;;;18.90;1.00;;;;;;4910131;29;20044;-84
2022/06/06 06:12:22;;;;;;;9.73;6.47;;;18.90;1.00;;;;;;4913650;28;20048;-84
2022/06/06 06:15:11;;;;;;;9.13;6.50;;;19.00;1.00;;;;;;4912879;29;20036;-84
2022/06/06 06:17:39;;;;;;;8.07;6.18;;;19.00;1.00;;;;;;4922717;28;20450;-85
2022/06/06 06:20:11;;;;;;;9.07;6.45;;;19.20;1.00;;;;;;4991887;28;20066;-84
2022/06/06 06:22:44;;;;;;;8.77;6.57;;;19.30;1.00;;;;;;4991884;28;20450;-89
2022/06/06 06:25:10;;;;;;;8.30;6.65;;;19.30;99.90;;;;;;4996291;28;20025;-91
2022/06/06 06:27:37;;;;;;;8.73;6.22;;;19.40;99.90;;;;;;4995438;28;20085;-92
2022/06/06 06:30:05;;;;;;;7.97;6.28;;;19.50;1.00;;;;;;4997644;28;20487;-90
2022/06/06 06:32:53;;;;;;;9.55;6.10;;;19.60;99.90;;;;;;4972305;28;20029;-94
2022/06/06 06:35:45;;;;;;;6.07;5.47;;;19.70;99.90;;;;;;4994409;28;20519;-94
2022/06/06 06:38:29;;;;;;;7.53;5.93;;;19.90;99.90;;;;;;4995829;28;20028;-95
2022/06/06 06:41:28;;;;;;;7.55;6.18;;;19.90;99.90;;;;;;4996454;28;20038;-93
2022/06/06 06:43:59;;;;;;;6.25;5.45;;;19.90;99.90;;;;;;4997147;28;20137;-94
2022/06/06 06:46:40;;;;;;;8.02;6.10;;;19.90;99.90;;;;;;5002401;28;20033;-94
2022/06/06 06:49:09;;;;;;;8.27;6.00;;;20.00;99.90;;;;;;4986670;28;20042;-93
2022/06/06 06:51:37;;;;;;;6.90;5.68;;;20.10;99.90;;;;;;4994429;28;20034;-87
2022/06/06 06:54:22;;;;;;;7.97;5.28;;;20.20;99.90;;;;;;4994258;28;20109;-87
2022/06/06 06:57:21;;;;;;;9.52;5.95;;;20.20;99.90;;;;;;4993537;28;20045;-88
2022/06/06 06:59:53;;;;;;;9.07;5.68;;;20.20;1.00;;;;;;4991714;28;20047;-89
2022/06/06 07:08:58;;;;;;;7.97;5.40;;;20.40;99.90;;;;;;4994053;28;20124;-88
2022/06/06 07:11:46;;;;;;;10.50;5.90;;;20.60;99.90;;;;;;4989859;28;20022;-90
2022/06/06 07:14:17;;;;;;;7.28;5.75;;;20.70;99.90;;;;;;4994617;28;20030;-93
2022/06/06 07:16:44;;;;;;;7.80;5.57;;;20.70;99.90;;;;;;4994261;28;20072;-87
2022/06/06 07:19:15;;;;;;;6.97;5.32;;;20.70;99.90;;;;;;4976973;28;20034;-91
2022/06/06 07:21:42;;;;;;;6.63;5.70;;;20.70;99.90;;;;;;5001857;28;20041;-93
2022/06/06 07:24:10;;;;;;;6.57;5.32;;;21.00;99.90;;;;;;5007825;28;20026;-94
2022/06/06 07:26:39;;;;;;;7.90;5.65;;;20.80;99.90;;;;;;5006569;28;20057;-96
2022/06/06 07:29:10;;;;;;;7.10;4.78;;;20.80;99.90;;;;;;5004564;28;20513;-94
2022/06/06 07:31:39;;;;;;;8.88;5.43;;;20.90;99.90;;;;;;5006173;28;20033;-95
2022/06/06 07:34:37;;;;;;;6.43;4.80;;;21.10;99.90;;;;;;4993986;28;20054;-96
2022/06/06 07:37:08;;;;;;;5.38;4.65;;;21.10;99.90;;;;;;5006631;28;20113;-94
2022/06/06 07:39:55;;;;;;;7.07;5.07;;;21.20;99.90;;;;;;5006800;28;20035;-93
2022/06/06 07:42:29;;;;;;;6.28;4.75;;;21.30;99.90;;;;;;4987400;28;20023;-90
2022/06/06 07:45:13;;;;;;;4.75;4.35;;;21.30;99.90;;;;;;5003843;28;20492;-96
2022/06/06 07:47:53;;;;;;;5.88;5.20;;;21.40;99.90;;;;;;4988632;28;20037;-91
2022/06/06 07:50:44;;;;;;;6.30;5.43;;;21.40;99.90;;;;;;4997138;28;20038;-91
2022/06/06 07:53:30;;;;;;;5.85;5.00;;;21.50;99.90;;;;;;4991417;28;20042;-91
2022/06/06 07:56:19;;;;;;;5.47;4.93;;;21.50;99.90;;;;;;4975782;28;20022;-90
2022/06/06 07:59:18;;;;;;;7.03;4.53;;;21.50;99.90;;;;;;4994377;28;20032;-93
2022/06/06 08:02:00;;;;;;;6.03;5.43;;;21.70;99.90;;;;;;4989395;28;20026;-92
2022/06/06 08:05:03;;;;;;;5.70;4.70;;;21.70;99.90;;;;;;4993383;28;20030;-93
2022/06/06 08:07:57;;;;;;;7.07;5.28;;;21.80;99.90;;;;;;4979023;28;20026;-93
2022/06/06 08:10:39;;;;;;;5.43;4.68;;;21.80;99.90;;;;;;4993861;28;20038;-94
2022/06/06 08:13:28;;;;;;;7.30;4.95;;;21.80;99.90;;;;;;4983410;28;20032;-93
2022/06/06 08:16:21;;;;;;;5.05;4.53;;;22.00;99.90;;;;;;4992670;28;20114;-87
2022/06/06 08:19:14;;;;;;;10.18;5.70;;;22.10;99.90;;;;;;5001046;28;20049;-88
2022/06/06 08:21:43;;;;;;;5.75;5.20;;;22.10;99.90;;;;;;4999439;28;20022;-90
2022/06/06 08:24:40;;;;;;;7.47;5.05;;;22.10;99.90;;;;;;5003301;28;20579;-89
2022/06/06 08:27:09;;;;;;;6.90;6.13;;;22.30;99.90;;;;;;4940874;29;20432;-90
2022/06/06 08:29:37;;;;;;;7.07;6.15;;;22.40;99.90;;;;;;4936224;29;20066;-90
2022/06/06 08:32:05;;;;;;;6.28;5.68;;;22.30;99.90;;;;;;4942876;29;20039;-90
2022/06/06 08:34:34;;;;;;;6.40;5.00;;;22.30;99.90;;;;;;4923092;29;20076;-92
2022/06/06 08:37:09;;;;;;;6.28;5.68;;;22.40;99.90;;;;;;4938156;29;20039;-95
2022/06/06 08:39:43;;;;;;;9.77;5.47;;;22.60;99.90;;;;;;4941274;29;20023;-96
2022/06/06 08:42:17;;;;;;;6.93;5.18;;;22.60;99.90;;;;;;4945958;29;20035;-95
2022/06/06 08:45:11;;;;;;;5.63;4.35;;;22.70;99.90;;;;;;4943461;29;20070;-93
2022/06/06 08:47:49;;;;;;;6.55;5.60;;;22.70;99.90;;;;;;4857579;29;20526;-92
2022/06/06 08:53:43;;;;;;;7.10;5.55;;;22.70;99.90;;;;;;4855006;29;20149;-89
2022/06/06 08:56:43;;;;;;;6.18;5.30;;;22.70;99.90;;;;;;4859399;29;20040;-91
2022/06/06 08:59:32;;;;;;;7.22;5.00;;;22.80;99.90;;;;;;4856473;29;20136;-91
2022/06/06 09:02:25;;;;;;;8.32;5.10;;;22.70;99.90;;;;;;4856367;29;20136;-90
2022/06/06 09:05:18;;;;;;;5.53;4.20;;;22.60;99.90;;;;;;4906517;29;20036;-90
2022/06/06 09:08:11;;;;;;;7.03;3.85;;;22.70;99.90;;;;;;4909975;29;20058;-89
2022/06/06 09:10:42;;;;;;;5.50;3.97;;;23.00;99.90;;;;;;4912625;29;20508;-90
2022/06/06 09:13:31;;;;;;;5.82;4.03;;;23.50;99.90;;;;;;4912793;29;20068;-88
2022/06/06 09:16:32;;;;;;;4.25;3.28;;;24.00;99.90;;;;;;4897953;29;20092;-86
2022/06/06 09:19:36;;;;;;;5.40;4.07;;;24.30;99.90;;;;;;4909986;29;20076;-84
2022/06/06 09:22:39;;;;;;;5.63;4.07;;;24.30;99.90;;;;;;4839043;29;20525;-86
2022/06/06 09:25:12;;;;;;;6.85;4.32;;;24.40;99.90;;;;;;4879809;29;20040;-86
2022/06/06 09:28:13;;;;;;;6.00;4.35;;;24.60;99.90;;;;;;4893763;29;20497;-85
2022/06/06 09:30:48;;;;;;;4.63;4.22;;;24.60;99.90;;;;;;4896576;29;20060;-91
2022/06/06 09:33:37;;;;;;;4.35;3.80;;;24.70;99.90;;;;;;4895830;29;20046;-91
2022/06/06 09:36:29;;;;;;;6.38;4.40;;;24.80;99.90;;;;;;4894078;29;20426;-89
2022/06/06 09:39:17;;;;;;;4.70;3.63;;;25.10;99.90;;;;;;4895988;29;20124;-93
2022/06/06 09:42:03;;;;;;;5.43;3.60;;;25.50;99.90;;;;;;4888966;29;20037;-94
2022/06/06 09:45:05;;;;;;;4.40;3.75;;;25.70;99.90;;;;;;4877446;29;20255;-91
2022/06/06 09:47:47;;;;;;;3.90;3.28;;;25.80;99.90;;;;;;4897940;29;20517;-92
2022/06/06 09:50:40;;;;;;;6.03;2.90;;;25.70;99.90;;;;;;4895774;29;20033;-91
2022/06/06 09:53:30;;;;;;;4.32;2.75;;;25.80;99.90;;;;;;4950163;28;20133;-91
2022/06/06 09:59:51;;;;;;;5.50;4.10;;;26.40;99.90;;;;;;4909608;29;20059;-91
2022/06/06 10:02:29;;;;;;;4.88;4.47;;;26.40;99.90;;;;;;4915211;29;20079;-90
2022/06/06 10:05:13;;;;;;;5.13;4.50;;;26.50;99.90;;;;;;4908448;29;20257;-93
2022/06/06 10:08:08;;;;;;;6.88;5.20;;;26.60;99.90;;;;;;4913831;29;20135;-92
2022/06/06 10:11:04;;;;;;;5.53;5.03;;;26.60;99.90;;;;;;4913977;29;20043;-91
2022/06/06 10:13:50;;;;;;;5.97;4.97;;;26.40;99.90;;;;;;4897974;29;20101;-93
2022/06/06 10:16:35;;;;;;;5.43;3.90;;;26.10;99.90;;;;;;4914666;29;20095;-91
2022/06/06 10:19:33;;;;;;;5.15;3.95;;;26.00;99.90;;;;;;4912520;29;20144;-91
2022/06/06 10:22:22;;;;;;;5.55;4.53;;;26.30;99.90;;;;;;4900821;29;20040;-92
2022/06/06 10:24:50;;;;;;;4.93;4.43;;;26.60;99.90;;;;;;4914254;29;20060;-93
2022/06/06 10:27:45;;;;;;;5.20;3.83;;;26.40;99.90;;;;;;4914067;29;20024;-92
2022/06/06 10:30:23;;;;;;;4.65;4.05;;;26.40;99.90;;;;;;4913924;29;20113;-88
2022/06/06 10:33:19;;;;;;;4.65;3.90;;;26.30;99.90;;;;;;4905979;29;20117;-90
2022/06/06 10:36:11;;;;;;;5.72;4.20;;;26.20;99.90;;;;;;4960462;28;20530;-88
2022/06/06 10:39:04;;;;;;;4.55;4.15;;;26.30;99.90;;;;;;4989387;28;20041;-88
2022/06/06 10:41:58;;;;;;;3.95;3.53;;;26.30;99.90;;;;;;4988971;28;20078;-89
2022/06/06 10:45:11;;;;;;;8.07;3.55;;;26.40;99.90;;;;;;4990196;28;20030;-86
2022/06/06 10:47:57;;;;;;;5.53;3.88;;;26.80;99.90;;;;;;4902726;29;20071;-86
2022/06/06 10:50:29;;;;;;;5.15;3.72;;;27.80;99.90;;;;;;4909206;29;20079;-86
2022/06/06 10:53:11;;;;;;;7.13;3.58;;;28.20;99.90;;;;;;4912717;29;20059;-86
2022/06/06 10:55:39;;;;;;;4.00;3.67;;;28.00;99.90;;;;;;4912382;29;20055;-86
2022/06/06 10:58:27;;;;;;;4.30;3.95;;;28.50;99.90;;;;;;4912575;29;20032;-86
2022/06/06 11:01:19;;;;;;;4.88;4.10;;;29.40;99.90;;;;;;4897699;29;20033;-87
2022/06/06 11:03:53;;;;;;;4.68;3.65;;;29.30;99.90;;;;;;4912596;29;20077;-87
2022/06/06 11:06:44;;;;;;;4.05;3.65;;;29.50;99.90;;;;;;4909642;29;20028;-86
2022/06/06 11:09:15;;;;;;;6.10;3.50;;;29.50;99.90;;;;;;4913137;29;20087;-86
2022/06/06 11:12:05;;;;;;;4.82;3.90;;;29.50;99.90;;;;;;4912386;29;20032;-86
2022/06/06 11:14:42;;;;;;;4.55;3.80;;;29.80;99.90;;;;;;4912422;29;20062;-87
2022/06/06 11:17:28;;;;;;;5.00;3.75;;;30.00;99.90;;;;;;4911650;29;20032;-86
2022/06/06 11:20:15;;;;;;;4.32;3.25;;;30.00;99.90;;;;;;4910858;29;20488;-87
2022/06/06 11:23:06;;;;;;;4.45;4.05;;;30.40;99.90;;;;;;4974813;28;20034;-86
2022/06/06 11:25:47;;;;;;;5.97;4.10;;;30.20;99.90;;;;;;4990590;28;20034;-86
2022/06/06 11:29:01;;;;;;;4.03;3.63;;;30.50;99.90;;;;;;4989266;28;20042;-87
2022/06/06 11:31:40;;;;;;;4.80;3.35;;;31.00;99.90;;;;;;4921276;29;20040;-87
2022/06/06 11:34:27;;;;;;;4.00;3.60;;;31.40;99.90;;;;;;4931312;29;20591;-86
2022/06/06 11:37:18;;;;;;;3.70;3.40;;;31.90;99.90;;;;;;4918699;29;20052;-86
2022/06/06 11:40:08;;;;;;;7.05;3.70;;;31.40;99.90;;;;;;4932844;29;20032;-87
2022/06/06 11:42:55;;;;;;;4.70;3.30;;;31.50;99.90;;;;;;4931774;29;20036;-86
2022/06/06 11:45:45;;;;;;;4.40;3.97;;;31.20;99.90;;;;;;4929056;29;20144;-87
2022/06/06 11:48:39;;;;;;;4.40;4.00;;;31.10;99.90;;;;;;4921230;29;20052;-86
2022/06/06 11:51:29;;;;;;;4.78;3.40;;;31.40;99.90;;;;;;4920823;29;20043;-86
2022/06/06 11:54:19;;;;;;;4.20;3.80;;;32.30;99.90;;;;;;4922690;29;20151;-87
2022/06/06 11:56:56;;;;;;;5.57;3.35;;;33.50;99.90;;;;;;4931190;29;20044;-87
2022/06/06 11:59:40;;;;;;;4.82;3.15;;;33.40;99.90;;;;;;4926967;29;20211;-86
2022/06/06 12:02:39;;;;;;;3.40;3.08;;;33.30;99.90;;;;;;4929247;29;20053;-86
2022/06/06 12:05:35;;;;;;;4.38;3.30;;;32.70;99.90;;;;;;4929573;29;20036;-87
2022/06/06 12:08:22;;;;;;;4.07;3.22;;;34.80;99.90;;;;;;4967259;28;20454;-87
2022/06/06 12:10:50;;;;;;;4.45;3.10;;;35.60;99.90;;;;;;4992793;28;20125;-86
2022/06/06 12:13:53;;;;;;;4.78;3.13;;;35.90;99.90;;;;;;4992431;28;20034;-86
2022/06/06 12:16:24;;;;;;;3.40;3.10;;;35.10;99.90;;;;;;4980182;28;20026;-87
2022/06/06 12:19:00;;;;;;;3.78;2.97;;;34.30;99.90;;;;;;4980365;28;20042;-87
2022/06/06 12:21:58;;;;;;;3.33;3.03;;;34.30;99.90;;;;;;4990992;28;20088;-87
2022/06/06 12:24:48;;;;;;;3.50;2.58;;;32.90;99.90;;;;;;4990622;28;20011;-86
2022/06/06 12:27:42;;;;;;;3.17;2.88;;;32.30;99.90;;;;;;4994128;28;20038;-87
2022/06/06 12:30:45;;;;;;;3.55;3.08;;;31.90;99.90;;;;;;4991277;28;20438;-87
2022/06/06 12:33:37;;;;;;;3.25;2.97;;;32.80;99.90;;;;;;4993261;28;20050;-87
2022/06/06 12:36:18;;;;;;;3.05;2.80;;;32.60;99.90;;;;;;4912398;29;20055;-87
2022/06/06 12:38:56;;;;;;;2.75;2.47;;;32.40;99.90;;;;;;4914478;29;20664;-87
2022/06/06 12:41:49;;;;;;;4.70;2.88;;;31.80;99.90;;;;;;4914887;29;20059;-86
2022/06/06 12:44:20;;;;;;;4.57;2.70;;;32.00;99.90;;;;;;4914878;29;20083;-86
2022/06/06 12:47:06;;;;;;;3.30;2.42;;;32.00;99.90;;;;;;4914283;29;20048;-87
2022/06/06 12:49:46;;;;;;;5.78;2.60;;;32.00;99.90;;;;;;4911711;29;20036;-87
2022/06/06 12:52:48;;;;;;;4.63;3.05;;;32.50;99.90;;;;;;4909706;29;20530;-86
2022/06/06 12:57:52;;;;;;;2.90;2.30;;;32.10;99.90;;;;;;4914102;29;20075;-86
2022/06/06 13:01:37;;;;;;;5.18;2.50;;;32.30;99.90;;;;;;4914673;29;20452;-86
2022/06/06 13:03:31;;;;;;;5.93;2.30;;;32.00;99.90;;;;;;4905501;29;20072;-87
2022/06/06 13:06:04;;;;;;;5.45;2.65;;;31.70;99.90;;;;;;4914128;29;20040;-87
2022/06/06 13:09:01;;;;;;;2.30;2.10;;;31.50;99.90;;;;;;4904033;29;20486;-86
2022/06/06 13:11:51;;;;;;;3.33;2.47;;;31.20;99.90;;;;;;4911880;29;20040;-86
2022/06/06 13:14:34;;;;;;;2.47;2.22;;;30.80;99.90;;;;;;4987670;28;20487;-86
2022/06/06 13:17:49;;;;;;;5.53;2.30;;;30.50;99.90;;;;;;4968850;28;20525;-86
2022/06/06 13:20:35;;;;;;;4.38;2.50;;;30.50;99.90;;;;;;4990686;28;20100;-86
2022/06/06 13:23:15;;;;;;;2.40;2.20;;;30.30;99.90;;;;;;4990360;28;20026;-87
2022/06/06 13:26:19;;;;;;;3.35;2.38;;;30.40;99.90;;;;;;4991606;28;20438;-86
2022/06/06 13:28:50;;;;;;;2.28;2.08;;;30.30;99.90;;;;;;4990990;28;20110;-87
2022/06/06 13:31:37;;;;;;;2.58;2.35;;;30.50;99.90;;;;;;4991517;28;20034;-86
2022/06/06 13:34:24;;;;;;;6.03;2.45;;;30.70;99.90;;;;;;4977487;28;20196;-86
2022/06/06 13:36:53;;;;;;;2.88;2.30;;;30.60;99.90;;;;;;4989063;28;20125;-86
2022/06/06 13:39:35;;;;;;;2.83;2.30;;;30.60;99.90;;;;;;4988069;28;20514;-86
2022/06/06 13:42:05;;;;;;;3.90;2.40;;;30.70;99.90;;;;;;4993498;28;20058;-86
2022/06/06 13:44:49;;;;;;;4.78;2.70;;;30.70;99.90;;;;;;4990820;28;20033;-86
2022/06/06 13:47:21;;;;;;;3.92;2.95;;;30.70;99.90;;;;;;4988879;28;20057;-87
2022/06/06 13:50:08;;;;;;;2.70;2.50;;;30.70;99.90;;;;;;4991575;28;20097;-86
2022/06/06 13:52:55;;;;;;;2.85;2.30;;;30.90;99.90;;;;;;4988966;28;20027;-86
2022/06/06 13:55:37;;;;;;;3.50;2.40;;;31.00;99.90;;;;;;4989787;28;20031;-86
2022/06/06 13:58:17;;;;;;;3.28;2.13;;;31.10;99.90;;;;;;4977170;28;20031;-86
2022/06/06 14:01:07;;;;;;;3.70;2.50;;;30.90;99.90;;;;;;4991519;28;20070;-86
2022/06/06 14:03:54;;;;;;;3.17;2.42;;;30.30;99.90;;;;;;4990439;28;20034;-86
2022/06/06 14:06:38;;;;;;;2.75;2.55;;;30.10;99.90;;;;;;4988101;28;20065;-86
2022/06/06 14:09:04;;;;;;;2.83;2.53;;;30.20;99.90;;;;;;4990168;28;20038;-86
2022/06/06 14:12:07;;;;;;;2.97;2.67;;;30.70;99.90;;;;;;4990970;28;20394;-86
2022/06/06 14:14:35;;;;;;;3.72;2.38;;;30.70;99.90;;;;;;4990959;28;20042;-87
2022/06/06 14:17:04;;;;;;;5.85;2.42;;;30.90;99.90;;;;;;4989871;28;20074;-86
2022/06/06 14:19:48;;;;;;;2.92;2.47;;;31.00;99.90;;;;;;4991580;28;20113;-86
2022/06/06 14:22:52;;;;;;;3.25;2.28;;;31.30;99.90;;;;;;4989070;28;20034;-86
2022/06/06 14:25:18;;;;;;;3.60;2.40;;;31.20;99.90;;;;;;4980686;28;20718;-86